Time;durP1;ratioP1;P1;durP2;ratioP2;P2;SDS_P1;SDS_P2;PMS_P1;PMS_P2;Temp;Humidity;BMP_temperature;BMP_pressure;BME280_temperature;BME280_humidity;BME280_pressure;Samples;Min_cycle;Max_cycle;Signal;HPM_P1;HPM_P2
2022/10/27 00:01:48;;;;;;;9.75;1.92;;;;;;;;;;5020672;28;20053;-69
2022/10/27 00:04:18;;;;;;;11.55;1.45;;;;;;;;;;5014001;28;20053;-71
2022/10/27 00:06:49;;;;;;;4.10;1.23;;;;;;;;;;5046099;28;20544;-70
2022/10/27 00:09:19;;;;;;;7.57;2.25;;;;;;;;;;5032673;28;20073;-69
2022/10/27 00:11:49;;;;;;;8.68;1.75;;;;;;;;;;5032489;28;20440;-70
2022/10/27 00:14:19;;;;;;;2.78;0.80;;;;;;;;;;5032441;28;20064;-68
2022/10/27 00:17:09;;;;;;;1.80;0.88;;;;;;;;;;4983024;28;20049;-69
2022/10/27 00:19:39;;;;;;;3.08;0.85;;;;;;;;;;4977774;28;20050;-69
2022/10/27 00:22:08;;;;;;;1.20;0.65;;;;;;;;;;4977645;28;20157;-72
2022/10/27 00:24:38;;;;;;;2.05;0.77;;;;;;;;;;5010004;28;20053;-68
2022/10/27 00:27:09;;;;;;;1.90;0.85;;;;;;;;;;5009813;28;20058;-69
2022/10/27 00:29:39;;;;;;;3.90;1.45;;;;;;;;;;4946222;28;20061;-69
2022/10/27 00:32:09;;;;;;;3.70;1.17;;;;;;;;;;5009816;28;20414;-71
2022/10/27 00:34:39;;;;;;;1.58;0.88;;;;;;;;;;4977522;28;20064;-69
2022/10/27 00:37:08;;;;;;;1.05;0.57;;;;;;;;;;4977459;28;20057;-68
2022/10/27 00:39:39;;;;;;;3.45;0.57;;;;;;;;;;4977376;28;20057;-69
2022/10/27 00:42:13;;;;;;;4.82;1.33;;;;;;;;;;5009923;28;20457;-67
2022/10/27 00:44:46;;;;;;;3.55;0.50;;;;;;;;;;4977505;28;20561;-69
2022/10/27 00:47:25;;;;;;;0.82;0.63;;;;;;;;;;4973816;28;20073;-70
2022/10/27 00:50:02;;;;;;;5.25;0.80;;;;;;;;;;4974541;28;20070;-70
2022/10/27 00:52:50;;;;;;;1.42;0.50;;;;;;;;;;4990023;28;20119;-70
2022/10/27 00:55:41;;;;;;;2.47;0.65;;;;;;;;;;4990497;28;20061;-67
2022/10/27 00:58:16;;;;;;;1.23;0.50;;;;;;;;;;4958044;28;20482;-69
2022/10/27 01:00:46;;;;;;;2.58;0.55;;;;;;;;;;4995979;28;20062;-71
2022/10/27 01:03:20;;;;;;;2.17;1.05;;;;;;;;;;5009956;28;20053;-69
2022/10/27 01:05:52;;;;;;;1.73;0.30;;;;;;;;;;4993784;28;20073;-67
2022/10/27 01:08:23;;;;;;;1.67;0.43;;;;;;;;;;5009577;28;20053;-70
2022/10/27 01:10:53;;;;;;;2.08;0.50;;;;;;;;;;5009648;28;20046;-70
2022/10/27 01:13:24;;;;;;;2.45;0.52;;;;;;;;;;5009537;28;20165;-71
2022/10/27 01:16:35;;;;;;;1.02;0.50;;;;;;;;;;5009701;28;20088;-69
2022/10/27 01:19:20;;;;;;;2.22;0.35;;;;;;;;;;4990183;28;20051;-65
2022/10/27 01:22:14;;;;;;;1.38;0.55;;;;;;;;;;4974454;28;20051;-67
2022/10/27 01:25:26;;;;;;;2.50;0.60;;;;;;;;;;4967151;28;20518;-68
2022/10/27 01:28:29;;;;;;;0.85;0.40;;;;;;;;;;4958009;28;20529;-70
2022/10/27 01:31:21;;;;;;;1.10;0.50;;;;;;;;;;4935848;29;20066;-70
2022/10/27 01:34:14;;;;;;;2.25;0.45;;;;;;;;;;4935564;29;20048;-69
2022/10/27 01:37:26;;;;;;;1.50;0.50;;;;;;;;;;4935760;29;20059;-74
2022/10/27 01:40:06;;;;;;;1.80;0.77;;;;;;;;;;4897685;29;20076;-74
2022/10/27 01:42:49;;;;;;;1.25;0.63;;;;;;;;;;4882095;29;20053;-74
2022/10/27 01:45:28;;;;;;;2.15;0.80;;;;;;;;;;4882247;29;20421;-72
2022/10/27 01:48:00;;;;;;;2.05;0.40;;;;;;;;;;4897770;29;20064;-68
2022/10/27 01:50:37;;;;;;;2.35;0.50;;;;;;;;;;4865687;29;20048;-69
2022/10/27 01:53:31;;;;;;;5.47;0.52;;;;;;;;;;4885034;29;20056;-70
2022/10/27 01:56:14;;;;;;;2.95;0.68;;;;;;;;;;4897481;29;20055;-68
2022/10/27 01:58:59;;;;;;;2.22;0.45;;;;;;;;;;4931686;29;20628;-68
2022/10/27 02:01:45;;;;;;;1.55;0.70;;;;;;;;;;4903870;29;20048;-68
2022/10/27 02:04:40;;;;;;;1.27;0.60;;;;;;;;;;4935461;29;20059;-67
2022/10/27 02:07:12;;;;;;;2.22;0.70;;;;;;;;;;4926066;28;20058;-69
2022/10/27 02:09:54;;;;;;;;;;;;;;;;;;4954422;28;20059;-69
2022/10/27 02:12:32;;;;;;;1.30;0.90;;;;;;;;;;4954422;29;20338;-70
2022/10/27 02:15:06;;;;;;;5.18;0.73;;;;;;;;;;4954221;29;20059;-68
2022/10/27 02:17:42;;;;;;;3.13;1.13;;;;;;;;;;5012701;28;20468;-69
2022/10/27 02:20:24;;;;;;;5.22;0.77;;;;;;;;;;5012298;28;20054;-69
2022/10/27 02:22:55;;;;;;;3.53;0.90;;;;;;;;;;4979972;28;20058;-72
2022/10/27 02:25:34;;;;;;;4.00;0.88;;;;;;;;;;5012473;28;20424;-77
2022/10/27 02:28:06;;;;;;;1.48;0.63;;;;;;;;;;4979823;28;20054;-80
2022/10/27 02:30:38;;;;;;;1.98;0.95;;;;;;;;;;5011285;28;20049;-76
2022/10/27 02:33:09;;;;;;;4.05;0.65;;;;;;;;;;4992340;28;20046;-74
2022/10/27 02:35:40;;;;;;;2.40;0.80;;;;;;;;;;4960891;28;20101;-73
2022/10/27 02:38:15;;;;;;;2.83;0.60;;;;;;;;;;4992515;28;20049;-72
2022/10/27 02:40:45;;;;;;;3.45;0.60;;;;;;;;;;4992870;28;20086;-72
2022/10/27 02:43:16;;;;;;;1.50;0.70;;;;;;;;;;4992551;28;20046;-74
2022/10/27 02:45:45;;;;;;;3.08;0.55;;;;;;;;;;4944153;28;20482;-69
2022/10/27 02:48:15;;;;;;;0.90;0.52;;;;;;;;;;4995157;28;20065;-68
2022/10/27 02:50:45;;;;;;;2.72;0.50;;;;;;;;;;4998806;28;20049;-67
2022/10/27 02:53:15;;;;;;;11.48;0.70;;;;;;;;;;5015065;28;20042;-70
2022/10/27 02:55:45;;;;;;;1.75;0.82;;;;;;;;;;5031646;28;20472;-68
2022/10/27 02:58:15;;;;;;;0.93;0.43;;;;;;;;;;5031732;28;20053;-68
2022/10/27 03:00:45;;;;;;;1.95;0.50;;;;;;;;;;5015173;28;20505;-72
2022/10/27 03:03:15;;;;;;;1.08;0.60;;;;;;;;;;5014921;28;20061;-68
2022/10/27 03:05:44;;;;;;;3.60;0.85;;;;;;;;;;4998632;28;20072;-69
2022/10/27 03:08:17;;;;;;;1.95;0.60;;;;;;;;;;4999903;28;20057;-69
2022/10/27 03:10:47;;;;;;;1.88;0.52;;;;;;;;;;5032519;28;20058;-69
2022/10/27 03:13:16;;;;;;;1.63;0.30;;;;;;;;;;4998846;28;20065;-75
2022/10/27 03:15:48;;;;;;;1.15;0.60;;;;;;;;;;5033472;28;20042;-77
2022/10/27 03:18:18;;;;;;;5.75;1.05;;;;;;;;;;4998986;28;20080;-78
2022/10/27 03:20:48;;;;;;;1.95;0.77;;;;;;;;;;5015004;28;20057;-78
2022/10/27 03:23:18;;;;;;;1.55;0.65;;;;;;;;;;5032477;28;20049;-79
2022/10/27 03:25:48;;;;;;;1.67;0.60;;;;;;;;;;5033284;28;20054;-72
2022/10/27 03:28:19;;;;;;;0.90;0.52;;;;;;;;;;5048346;28;20053;-74
2022/10/27 03:30:49;;;;;;;1.30;0.63;;;;;;;;;;5033049;28;20041;-75
2022/10/27 03:33:19;;;;;;;2.10;0.55;;;;;;;;;;5033403;28;20041;-72
2022/10/27 03:35:49;;;;;;;4.32;0.70;;;;;;;;;;5064375;28;20060;-75
2022/10/27 03:38:18;;;;;;;1.63;0.90;;;;;;;;;;5064552;28;20482;-76
2022/10/27 03:40:49;;;;;;;2.92;0.75;;;;;;;;;;5032904;28;20050;-75
2022/10/27 03:43:19;;;;;;;1.70;0.80;;;;;;;;;;5030863;28;20050;-77
2022/10/27 03:45:49;;;;;;;1.00;0.63;;;;;;;;;;5032786;28;20052;-73
2022/10/27 03:48:19;;;;;;;2.10;0.88;;;;;;;;;;5030396;28;20152;-75
2022/10/27 03:50:50;;;;;;;1.88;0.65;;;;;;;;;;4997607;28;20064;-72
2022/10/27 03:53:20;;;;;;;1.50;0.70;;;;;;;;;;4997871;28;20050;-74
2022/10/27 03:55:50;;;;;;;2.05;0.52;;;;;;;;;;5046787;28;20156;-73
2022/10/27 03:58:20;;;;;;;1.70;0.43;;;;;;;;;;5030546;28;20060;-73
2022/10/27 04:00:50;;;;;;;1.60;0.60;;;;;;;;;;5030434;28;20054;-71
2022/10/27 04:03:20;;;;;;;1.48;0.50;;;;;;;;;;5030408;28;20058;-72
2022/10/27 04:05:50;;;;;;;1.33;0.52;;;;;;;;;;5030173;28;20053;-71
2022/10/27 04:08:21;;;;;;;3.28;0.60;;;;;;;;;;5030361;28;20045;-73
2022/10/27 04:10:51;;;;;;;2.92;0.82;;;;;;;;;;5030248;28;20053;-73
2022/10/27 04:13:20;;;;;;;3.28;0.43;;;;;;;;;;4997203;28;20050;-75
2022/10/27 04:15:59;;;;;;;1.10;0.50;;;;;;;;;;4981409;28;20056;-73
2022/10/27 04:18:30;;;;;;;3.08;0.60;;;;;;;;;;5063274;28;20413;-72
2022/10/27 04:21:04;;;;;;;0.98;0.50;;;;;;;;;;5029741;28;20057;-72
2022/10/27 04:23:34;;;;;;;3.28;0.43;;;;;;;;;;5030087;28;20517;-72
2022/10/27 04:26:04;;;;;;;4.50;0.90;;;;;;;;;;5031177;28;20076;-73
2022/10/27 04:28:34;;;;;;;2.85;0.88;;;;;;;;;;5047290;28;20504;-73
2022/10/27 04:31:04;;;;;;;1.92;0.45;;;;;;;;;;5032200;28;20473;-74
2022/10/27 04:33:34;;;;;;;1.48;0.52;;;;;;;;;;5031993;28;20057;-76
2022/10/27 04:36:05;;;;;;;1.50;0.60;;;;;;;;;;5032228;28;20048;-75
2022/10/27 04:38:35;;;;;;;2.22;0.80;;;;;;;;;;5030223;28;20068;-73
2022/10/27 04:41:05;;;;;;;2.83;0.40;;;;;;;;;;5032118;28;20056;-74
2022/10/27 04:43:34;;;;;;;2.30;0.50;;;;;;;;;;5013435;28;20064;-73
2022/10/27 04:46:04;;;;;;;2.25;0.50;;;;;;;;;;5031970;28;20048;-74
2022/10/27 04:48:34;;;;;;;2.88;0.50;;;;;;;;;;5029828;28;20057;-75
2022/10/27 04:51:04;;;;;;;1.10;0.35;;;;;;;;;;5032194;28;20486;-73
2022/10/27 04:53:34;;;;;;;1.45;0.45;;;;;;;;;;5031473;28;20046;-75
2022/10/27 04:56:05;;;;;;;3.75;0.73;;;;;;;;;;5029869;28;20058;-75
2022/10/27 04:58:35;;;;;;;3.25;0.75;;;;;;;;;;5029859;28;20429;-75
2022/10/27 05:01:09;;;;;;;1.35;0.80;;;;;;;;;;5032085;28;20045;-75
2022/10/27 05:03:41;;;;;;;1.40;0.52;;;;;;;;;;5031649;28;20037;-75
2022/10/27 05:06:11;;;;;;;2.45;0.52;;;;;;;;;;5031822;28;20056;-75
2022/10/27 05:08:41;;;;;;;1.25;0.40;;;;;;;;;;5013228;28;20076;-74
2022/10/27 05:11:11;;;;;;;2.85;0.52;;;;;;;;;;5031716;28;20041;-75
2022/10/27 05:13:48;;;;;;;2.78;0.32;;;;;;;;;;5031617;28;20067;-75
2022/10/27 05:16:18;;;;;;;0.98;0.43;;;;;;;;;;4997274;28;20045;-74
2022/10/27 05:18:48;;;;;;;2.10;0.70;;;;;;;;;;5045996;28;20061;-76
2022/10/27 05:21:18;;;;;;;1.35;0.50;;;;;;;;;;5031647;28;20045;-74
2022/10/27 05:23:48;;;;;;;1.63;0.32;;;;;;;;;;5031732;28;20045;-75
2022/10/27 05:26:18;;;;;;;2.28;0.60;;;;;;;;;;5046081;28;20050;-76
2022/10/27 05:28:48;;;;;;;1.90;0.70;;;;;;;;;;5029339;28;20057;-75
2022/10/27 05:31:17;;;;;;;1.30;0.43;;;;;;;;;;4996819;28;20057;-75
2022/10/27 05:33:48;;;;;;;1.40;0.47;;;;;;;;;;5031415;28;20496;-76
2022/10/27 05:36:18;;;;;;;1.33;0.88;;;;;;;;;;5031683;28;20038;-76
2022/10/27 05:38:48;;;;;;;0.85;0.52;;;;;;;;;;5029460;28;20065;-77
2022/10/27 05:41:18;;;;;;;0.93;0.40;;;;;;;;;;5029073;28;20057;-76
2022/10/27 05:43:48;;;;;;;1.50;0.50;;;;;;;;;;5029277;28;20057;-76
2022/10/27 05:46:18;;;;;;;3.10;0.65;;;;;;;;;;5029174;28;20060;-77
2022/10/27 05:48:48;;;;;;;1.63;0.90;;;;;;;;;;5029130;28;20428;-76
2022/10/27 05:51:18;;;;;;;2.13;0.57;;;;;;;;;;5045876;28;20065;-76
2022/10/27 05:53:50;;;;;;;2.60;0.50;;;;;;;;;;5029155;28;20056;-76
2022/10/27 05:56:21;;;;;;;8.18;0.73;;;;;;;;;;5029004;28;20145;-77
2022/10/27 05:58:51;;;;;;;2.13;0.70;;;;;;;;;;5028916;28;20061;-76
2022/10/27 06:01:21;;;;;;;0.65;0.47;;;;;;;;;;5029314;28;20504;-77
2022/10/27 06:03:51;;;;;;;1.58;0.60;;;;;;;;;;5028941;28;20049;-76
2022/10/27 06:06:21;;;;;;;2.55;0.60;;;;;;;;;;5049244;28;20517;-76
2022/10/27 06:08:51;;;;;;;1.30;0.80;;;;;;;;;;5032750;28;20656;-76
2022/10/27 06:11:21;;;;;;;1.42;0.70;;;;;;;;;;4992872;28;20054;-77
2022/10/27 06:13:51;;;;;;;1.60;0.52;;;;;;;;;;4944680;28;20070;-77
2022/10/27 06:16:24;;;;;;;1.25;0.57;;;;;;;;;;4993083;28;20410;-77
2022/10/27 06:18:55;;;;;;;2.28;0.90;;;;;;;;;;5002603;28;20437;-76
2022/10/27 06:21:26;;;;;;;3.95;0.50;;;;;;;;;;5012608;28;20050;-76
2022/10/27 06:23:56;;;;;;;2.88;0.88;;;;;;;;;;4979846;28;20426;-73
2022/10/27 06:26:26;;;;;;;3.47;0.68;;;;;;;;;;5012504;28;20065;-77
2022/10/27 06:28:57;;;;;;;1.52;0.52;;;;;;;;;;5012196;28;20061;-74
2022/10/27 06:31:28;;;;;;;1.95;0.63;;;;;;;;;;5012391;28;20049;-76
2022/10/27 06:33:58;;;;;;;4.68;0.52;;;;;;;;;;4980216;28;20096;-77
2022/10/27 06:36:28;;;;;;;2.60;0.60;;;;;;;;;;5012220;28;20071;-77
2022/10/27 06:38:57;;;;;;;3.22;0.70;;;;;;;;;;4979593;28;20065;-76
2022/10/27 06:41:28;;;;;;;1.15;0.52;;;;;;;;;;5012307;28;20057;-76
2022/10/27 06:43:58;;;;;;;2.65;1.30;;;;;;;;;;4992511;28;20046;-76
2022/10/27 06:46:29;;;;;;;1.23;0.50;;;;;;;;;;4959991;28;20073;-76
2022/10/27 06:49:00;;;;;;;1.42;0.60;;;;;;;;;;5012730;28;20517;-77
2022/10/27 06:51:30;;;;;;;4.47;0.60;;;;;;;;;;4998849;28;20054;-77
2022/10/27 06:54:00;;;;;;;2.75;0.55;;;;;;;;;;4998767;28;20061;-77
2022/10/27 06:56:30;;;;;;;1.40;0.43;;;;;;;;;;5031537;28;20053;-76
2022/10/27 06:59:01;;;;;;;3.90;0.90;;;;;;;;;;5031776;28;20072;-77
2022/10/27 07:01:31;;;;;;;3.33;0.55;;;;;;;;;;5031462;28;20497;-76
2022/10/27 07:04:01;;;;;;;1.55;0.70;;;;;;;;;;5031574;28;20041;-76
2022/10/27 07:06:32;;;;;;;5.13;0.85;;;;;;;;;;5031493;28;20052;-76
2022/10/27 07:09:03;;;;;;;1.80;0.70;;;;;;;;;;5015500;28;20064;-76
2022/10/27 07:11:37;;;;;;;4.13;0.90;;;;;;;;;;5031248;28;20532;-76
2022/10/27 07:14:07;;;;;;;3.30;0.73;;;;;;;;;;5031445;28;20049;-77
2022/10/27 07:16:37;;;;;;;1.65;0.52;;;;;;;;;;5030672;28;20528;-77
2022/10/27 07:19:07;;;;;;;2.90;0.60;;;;;;;;;;5031189;28;20061;-76
2022/10/27 07:21:38;;;;;;;2.85;0.60;;;;;;;;;;5032211;28;20065;-77
2022/10/27 07:24:08;;;;;;;2.35;0.60;;;;;;;;;;5033618;28;20045;-76
2022/10/27 07:26:42;;;;;;;2.20;0.65;;;;;;;;;;4998709;28;20069;-77
2022/10/27 07:29:12;;;;;;;2.38;0.90;;;;;;;;;;5033463;28;20409;-77
2022/10/27 07:31:47;;;;;;;2.13;0.60;;;;;;;;;;5031463;28;20049;-75
2022/10/27 07:34:17;;;;;;;2.30;1.08;;;;;;;;;;5064646;28;20421;-76
2022/10/27 07:36:47;;;;;;;1.70;0.70;;;;;;;;;;5033160;28;20053;-77
2022/10/27 07:39:17;;;;;;;1.10;0.68;;;;;;;;;;5033492;28;20472;-76
2022/10/27 07:41:47;;;;;;;2.05;1.00;;;;;;;;;;5031171;28;20068;-76
2022/10/27 07:44:17;;;;;;;2.63;1.42;;;;;;;;;;5033395;28;20068;-77
2022/10/27 07:46:48;;;;;;;2.13;1.00;;;;;;;;;;5032965;28;20045;-76
2022/10/27 07:49:18;;;;;;;6.28;0.80;;;;;;;;;;5033172;28;20504;-75
2022/10/27 07:51:47;;;;;;;1.80;0.80;;;;;;;;;;5014467;28;20072;-76
2022/10/27 07:54:17;;;;;;;1.48;0.70;;;;;;;;;;5031040;28;20061;-76
2022/10/27 07:56:52;;;;;;;2.47;0.73;;;;;;;;;;5014967;28;20050;-76
2022/10/27 07:59:23;;;;;;;2.22;0.82;;;;;;;;;;5032829;28;20045;-76
2022/10/27 08:01:52;;;;;;;3.08;1.20;;;;;;;;;;4998017;28;20413;-76
2022/10/27 08:04:22;;;;;;;1.60;0.52;;;;;;;;;;5032646;28;20049;-76
2022/10/27 08:06:52;;;;;;;2.97;0.65;;;;;;;;;;5030069;28;20049;-76
2022/10/27 08:09:22;;;;;;;2.45;0.85;;;;;;;;;;5030521;28;20093;-76
2022/10/27 08:11:52;;;;;;;5.20;0.93;;;;;;;;;;5030387;28;20060;-75
2022/10/27 08:14:22;;;;;;;1.77;0.65;;;;;;;;;;5029917;28;20060;-74
2022/10/27 08:16:52;;;;;;;2.45;1.23;;;;;;;;;;5030169;28;20521;-75
2022/10/27 08:19:22;;;;;;;2.30;0.70;;;;;;;;;;5030109;28;20057;-74
2022/10/27 08:21:52;;;;;;;4.82;0.93;;;;;;;;;;5029951;28;20516;-75
2022/10/27 08:24:21;;;;;;;2.30;0.98;;;;;;;;;;5014216;28;20053;-75
2022/10/27 08:26:52;;;;;;;3.13;0.68;;;;;;;;;;5028960;28;20069;-74
2022/10/27 08:29:22;;;;;;;2.05;0.73;;;;;;;;;;5029992;28;20049;-74
2022/10/27 08:31:52;;;;;;;5.40;1.00;;;;;;;;;;5010171;28;20053;-74
2022/10/27 08:34:22;;;;;;;1.90;0.90;;;;;;;;;;5010165;28;20057;-73
2022/10/27 08:36:52;;;;;;;2.92;0.70;;;;;;;;;;5009803;28;20061;-73
2022/10/27 08:39:23;;;;;;;4.70;0.88;;;;;;;;;;4993540;28;20050;-73
2022/10/27 08:42:22;;;;;;;2.15;1.05;;;;;;;;;;4993727;28;20065;-73
2022/10/27 08:45:24;;;;;;;2.58;0.95;;;;;;;;;;5010070;28;20057;-74
2022/10/27 08:47:59;;;;;;;6.53;1.33;;;;;;;;;;5010157;28;20045;-73
2022/10/27 08:50:38;;;;;;;2.78;1.08;;;;;;;;;;5010069;28;20062;-73
2022/10/27 08:53:13;;;;;;;4.22;0.90;;;;;;;;;;4977721;28;20085;-73
2022/10/27 08:55:51;;;;;;;2.10;0.70;;;;;;;;;;5009957;28;20069;-72
2022/10/27 08:58:39;;;;;;;1.58;0.80;;;;;;;;;;4961402;28;20058;-73
2022/10/27 09:01:30;;;;;;;5.35;1.08;;;;;;;;;;4978966;28;20421;-73
2022/10/27 09:04:18;;;;;;;4.80;1.15;;;;;;;;;;5026046;28;20494;-73
2022/10/27 09:07:09;;;;;;;3.45;1.17;;;;;;;;;;5026252;28;20073;-74
2022/10/27 09:09:49;;;;;;;3.13;1.33;;;;;;;;;;5045529;28;20061;-72
2022/10/27 09:12:46;;;;;;;2.55;0.80;;;;;;;;;;5045808;28;20497;-72
2022/10/27 09:15:35;;;;;;;4.93;1.05;;;;;;;;;;4996493;28;20104;-71
2022/10/27 09:18:29;;;;;;;2.50;1.23;;;;;;;;;;5029732;28;20057;-72
2022/10/27 09:21:04;;;;;;;2.10;1.05;;;;;;;;;;5029360;28;20571;-72
2022/10/27 09:23:48;;;;;;;2.63;1.10;;;;;;;;;;4990173;28;20544;-72
2022/10/27 09:26:23;;;;;;;4.65;1.23;;;;;;;;;;4990211;28;20070;-72
2022/10/27 09:28:54;;;;;;;2.75;1.20;;;;;;;;;;4990087;28;20051;-72
2022/10/27 09:31:35;;;;;;;3.42;1.20;;;;;;;;;;4989973;28;20046;-71
2022/10/27 09:34:27;;;;;;;2.60;1.30;;;;;;;;;;4990074;28;20069;-72
2022/10/27 09:36:57;;;;;;;3.10;1.05;;;;;;;;;;4990167;28;20046;-72
2022/10/27 09:39:27;;;;;;;3.35;1.30;;;;;;;;;;4992551;28;20058;-72
2022/10/27 09:41:57;;;;;;;4.00;1.40;;;;;;;;;;4993818;28;20445;-72
2022/10/27 09:44:28;;;;;;;2.47;1.30;;;;;;;;;;4994070;28;20054;-71
2022/10/27 09:46:58;;;;;;;2.70;1.05;;;;;;;;;;4994227;28;20070;-74
2022/10/27 09:49:34;;;;;;;5.13;1.20;;;;;;;;;;4994636;28;20070;-72
2022/10/27 09:52:14;;;;;;;5.15;1.13;;;;;;;;;;4993984;28;20062;-72
2022/10/27 09:54:52;;;;;;;7.40;1.40;;;;;;;;;;4994757;28;20102;-71
2022/10/27 09:57:31;;;;;;;3.38;1.13;;;;;;;;;;5014003;28;20050;-71
2022/10/27 10:00:03;;;;;;;5.45;1.40;;;;;;;;;;5013928;28;20061;-72
2022/10/27 10:02:56;;;;;;;3.55;1.42;;;;;;;;;;4989400;28;20052;-72
2022/10/27 10:05:30;;;;;;;4.65;1.63;;;;;;;;;;5052682;28;20049;-72
2022/10/27 10:08:22;;;;;;;5.43;1.50;;;;;;;;;;5018989;28;20091;-73
2022/10/27 10:11:03;;;;;;;3.47;1.27;;;;;;;;;;5035911;28;20049;-72
2022/10/27 10:13:40;;;;;;;4.78;1.30;;;;;;;;;;5052534;28;20045;-72
2022/10/27 10:16:15;;;;;;;6.03;1.33;;;;;;;;;;5035763;28;20076;-71
2022/10/27 10:19:01;;;;;;;5.78;1.35;;;;;;;;;;5036068;28;20528;-72
2022/10/27 10:21:50;;;;;;;;;;;;;;;;;;5002823;28;20052;-73
2022/10/27 10:24:28;;;;;;;4.97;1.00;;;;;;;;;;5003162;28;20388;-72
2022/10/27 10:27:01;;;;;;;4.90;1.30;;;;;;;;;;5051926;28;20045;-73
2022/10/27 10:29:39;;;;;;;2.92;1.60;;;;;;;;;;5051918;28;20525;-73
2022/10/27 10:32:16;;;;;;;9.23;1.35;;;;;;;;;;5035909;28;20057;-72
2022/10/27 10:34:47;;;;;;;10.85;1.42;;;;;;;;;;5044899;28;20061;-72
2022/10/27 10:37:30;;;;;;;5.18;1.83;;;;;;;;;;5034240;28;20052;-71
2022/10/27 10:40:14;;;;;;;3.85;1.02;;;;;;;;;;5034016;28;20049;-73
2022/10/27 10:42:45;;;;;;;3.85;2.03;;;;;;;;;;4999737;28;20394;-72
2022/10/27 10:45:21;;;;;;;4.30;1.42;;;;;;;;;;5065430;28;20493;-72
2022/10/27 10:47:58;;;;;;;6.10;1.38;;;;;;;;;;5034107;28;20041;-71
2022/10/27 10:50:28;;;;;;;2.38;1.13;;;;;;;;;;4998699;28;20501;-72
2022/10/27 10:52:59;;;;;;;7.45;2.28;;;;;;;;;;5048735;28;20053;-71
2022/10/27 10:55:35;;;;;;;8.98;3.40;;;;;;;;;;5065188;28;20512;-72
2022/10/27 10:58:05;;;;;;;7.25;2.42;;;;;;;;;;5032065;28;20505;-71
2022/10/27 11:00:35;;;;;;;10.35;2.75;;;;;;;;;;4999656;28;20417;-72
2022/10/27 11:03:18;;;;;;;7.30;2.13;;;;;;;;;;5048849;28;20045;-72
2022/10/27 11:06:18;;;;;;;6.85;2.22;;;;;;;;;;5032925;28;20048;-72
2022/10/27 11:08:56;;;;;;;10.88;2.70;;;;;;;;;;4991841;28;20054;-72
2022/10/27 11:11:35;;;;;;;6.82;2.05;;;;;;;;;;4936970;29;20047;-72
2022/10/27 11:14:14;;;;;;;4.93;2.00;;;;;;;;;;4952973;29;20055;-71
2022/10/27 11:16:54;;;;;;;5.80;2.50;;;;;;;;;;4953132;29;20059;-71
2022/10/27 11:19:28;;;;;;;8.30;2.47;;;;;;;;;;4911303;29;20055;-71
2022/10/27 11:22:11;;;;;;;3.63;1.70;;;;;;;;;;4865065;29;20105;-72
2022/10/27 11:24:41;;;;;;;4.38;1.80;;;;;;;;;;4896407;29;20060;-72
2022/10/27 11:27:18;;;;;;;3.40;1.85;;;;;;;;;;4864508;29;20060;-72
2022/10/27 11:29:58;;;;;;;2.85;1.45;;;;;;;;;;4896257;29;20529;-73
2022/10/27 11:32:32;;;;;;;5.60;1.95;;;;;;;;;;4895800;29;20064;-72
2022/10/27 11:35:21;;;;;;;3.08;1.80;;;;;;;;;;4895850;29;20052;-73
2022/10/27 11:38:17;;;;;;;5.38;2.20;;;;;;;;;;4895986;29;20061;-72
2022/10/27 11:40:53;;;;;;;5.10;1.58;;;;;;;;;;4895506;29;20061;-72
2022/10/27 11:43:32;;;;;;;3.50;1.63;;;;;;;;;;4927162;29;20389;-72
2022/10/27 11:46:15;;;;;;;7.10;1.75;;;;;;;;;;4971460;28;20101;-71
2022/10/27 11:49:07;;;;;;;4.10;1.60;;;;;;;;;;4991339;28;20050;-71
2022/10/27 11:51:45;;;;;;;5.88;1.67;;;;;;;;;;5030620;28;20061;-72
2022/10/27 11:54:17;;;;;;;4.95;2.20;;;;;;;;;;5063984;28;20049;-71
2022/10/27 11:57:05;;;;;;;2.90;1.77;;;;;;;;;;5032859;28;20385;-71
2022/10/27 12:00:27;;;;;;;3.85;2.13;;;;;;;;;;5032868;28;20052;-72
2022/10/27 12:03:09;;;;;;;6.55;2.70;;;;;;;;;;5030069;28;20049;-72
2022/10/27 12:06:00;;;;;;;4.90;1.92;;;;;;;;;;5013885;28;20533;-72
2022/10/27 12:08:44;;;;;;;11.10;2.10;;;;;;;;;;5030165;28;20061;-72
2022/10/27 12:11:52;;;;;;;3.45;1.75;;;;;;;;;;5013764;28;20076;-73
2022/10/27 12:14:49;;;;;;;4.50;1.40;;;;;;;;;;5029945;28;20050;-72
2022/10/27 12:17:19;;;;;;;;;;;;;;;;;;4998020;28;20054;-73
2022/10/27 12:19:51;;;;;;;1.80;1.10;;;;;;;;;;5030149;28;19984;-75
2022/10/27 12:22:46;;;;;;;3.78;1.20;;;;;;;;;;5046582;28;20056;-75
2022/10/27 12:25:31;;;;;;;3.65;1.00;;;;;;;;;;4997339;28;20513;-75
2022/10/27 12:28:05;;;;;;;3.20;1.15;;;;;;;;;;5046340;28;20413;-74
2022/10/27 12:30:41;;;;;;;2.95;1.10;;;;;;;;;;5029942;28;20049;-75
2022/10/27 12:33:21;;;;;;;3.08;1.13;;;;;;;;;;4998556;28;20088;-77
2022/10/27 12:36:00;;;;;;;6.75;1.95;;;;;;;;;;5029887;28;20092;-74
2022/10/27 12:38:35;;;;;;;2.10;1.10;;;;;;;;;;4997097;28;20053;-75
2022/10/27 12:41:23;;;;;;;3.65;1.30;;;;;;;;;;5019593;28;20068;-70
2022/10/27 12:43:58;;;;;;;1.67;0.82;;;;;;;;;;5032035;28;20049;-77
2022/10/27 12:46:51;;;;;;;3.42;1.00;;;;;;;;;;5031846;28;20405;-74
2022/10/27 12:49:24;;;;;;;2.50;1.30;;;;;;;;;;5032036;28;20698;-73
2022/10/27 12:52:09;;;;;;;3.08;1.30;;;;;;;;;;5031986;28;20041;-76
2022/10/27 12:54:55;;;;;;;3.30;1.23;;;;;;;;;;5046356;28;20033;-75
2022/10/27 12:57:54;;;;;;;3.67;1.15;;;;;;;;;;5046207;28;20057;-76
2022/10/27 13:00:25;;;;;;;3.22;0.90;;;;;;;;;;5031734;28;20048;-75
2022/10/27 13:03:23;;;;;;;1.77;1.00;;;;;;;;;;5029732;28;20049;-75
2022/10/27 13:05:58;;;;;;;1.80;1.05;;;;;;;;;;5031769;28;20057;-76
2022/10/27 13:09:05;;;;;;;1.98;1.02;;;;;;;;;;5029463;28;20058;-77
2022/10/27 13:11:59;;;;;;;3.15;1.13;;;;;;;;;;5031634;28;20041;-74
2022/10/27 13:14:49;;;;;;;2.72;1.25;;;;;;;;;;5048875;28;20519;-75
2022/10/27 13:17:39;;;;;;;1.65;1.00;;;;;;;;;;5035859;28;20042;-78
2022/10/27 13:20:27;;;;;;;3.47;1.30;;;;;;;;;;5000991;28;20412;-76
2022/10/27 13:23:05;;;;;;;1.90;0.93;;;;;;;;;;5036023;28;20377;-76
2022/10/27 13:25:45;;;;;;;4.57;1.40;;;;;;;;;;5035631;28;20033;-77
2022/10/27 13:28:30;;;;;;;1.83;0.93;;;;;;;;;;5000491;28;20528;-78
2022/10/27 13:31:15;;;;;;;1.52;0.95;;;;;;;;;;5049756;28;20052;-76
2022/10/27 13:33:59;;;;;;;1.80;1.10;;;;;;;;;;5035491;28;20041;-77
2022/10/27 13:36:35;;;;;;;3.83;1.00;;;;;;;;;;5017580;28;20057;-78
2022/10/27 13:39:15;;;;;;;1.60;0.95;;;;;;;;;;5000906;28;20497;-75
2022/10/27 13:42:06;;;;;;;3.70;0.93;;;;;;;;;;5035527;28;20041;-76
2022/10/27 13:44:38;;;;;;;2.60;0.95;;;;;;;;;;5052738;28;20056;-76
2022/10/27 13:47:12;;;;;;;1.77;0.82;;;;;;;;;;5036622;28;20053;-75
2022/10/27 13:49:43;;;;;;;5.18;1.52;;;;;;;;;;5053089;28;20053;-74
2022/10/27 13:52:15;;;;;;;2.22;1.30;;;;;;;;;;5036078;28;20421;-76
2022/10/27 13:55:07;;;;;;;2.10;0.88;;;;;;;;;;5052948;28;20052;-77
2022/10/27 13:58:23;;;;;;;2.50;1.05;;;;;;;;;;5052902;28;20055;-76
2022/10/27 14:01:23;;;;;;;1.92;1.00;;;;;;;;;;5012983;28;20057;-73
2022/10/27 14:04:17;;;;;;;2.13;0.98;;;;;;;;;;4964299;28;20057;-73
2022/10/27 14:06:56;;;;;;;2.70;0.90;;;;;;;;;;4964842;28;20053;-75
2022/10/27 14:09:35;;;;;;;1.73;0.77;;;;;;;;;;5013039;28;20089;-74
2022/10/27 14:12:24;;;;;;;2.00;1.00;;;;;;;;;;5012813;28;20054;-73
2022/10/27 14:15:00;;;;;;;0.95;0.85;;;;;;;;;;4980297;28;20057;-71
2022/10/27 14:17:31;;;;;;;1.80;1.17;;;;;;;;;;5012422;28;20057;-73
2022/10/27 14:20:03;;;;;;;1.90;0.80;;;;;;;;;;4996130;28;20581;-72
2022/10/27 14:22:40;;;;;;;2.35;0.82;;;;;;;;;;4996498;28;20524;-72
2022/10/27 14:25:27;;;;;;;2.28;1.10;;;;;;;;;;5011291;28;20058;-71
2022/10/27 14:28:14;;;;;;;1.90;1.40;;;;;;;;;;4963779;28;20085;-73
2022/10/27 14:30:46;;;;;;;1.20;0.80;;;;;;;;;;5012421;28;20054;-72
2022/10/27 14:33:26;;;;;;;2.80;0.77;;;;;;;;;;5012444;28;20061;-74
2022/10/27 14:36:09;;;;;;;1.05;0.75;;;;;;;;;;4979466;28;20581;-75
2022/10/27 14:38:49;;;;;;;1.45;0.82;;;;;;;;;;4979927;28;20057;-74
2022/10/27 14:41:21;;;;;;;2.10;1.25;;;;;;;;;;5032209;28;20045;-74
2022/10/27 14:43:57;;;;;;;1.95;1.15;;;;;;;;;;4999885;28;20053;-73
2022/10/27 14:46:33;;;;;;;1.20;0.90;;;;;;;;;;5031937;28;20498;-73
2022/10/27 14:49:07;;;;;;;2.03;0.70;;;;;;;;;;5031878;28;20065;-74
2022/10/27 14:51:38;;;;;;;2.20;1.02;;;;;;;;;;4999114;28;20053;-74
2022/10/27 14:54:14;;;;;;;1.67;1.13;;;;;;;;;;5031968;28;20046;-71
2022/10/27 14:56:44;;;;;;;2.42;0.85;;;;;;;;;;5015497;28;20556;-74
2022/10/27 14:59:28;;;;;;;1.25;0.80;;;;;;;;;;5048129;28;20060;-71
2022/10/27 15:01:59;;;;;;;2.10;0.80;;;;;;;;;;5031864;28;20056;-74
2022/10/27 15:04:30;;;;;;;1.15;0.65;;;;;;;;;;5015003;28;20061;-71
2022/10/27 15:07:01;;;;;;;2.33;1.00;;;;;;;;;;5033933;28;20392;-72
2022/10/27 15:09:38;;;;;;;2.20;0.80;;;;;;;;;;5047983;28;20068;-73
2022/10/27 15:12:30;;;;;;;1.35;0.77;;;;;;;;;;5011412;28;20057;-72
2022/10/27 15:15:04;;;;;;;2.60;0.90;;;;;;;;;;5011742;28;20056;-74
2022/10/27 15:17:36;;;;;;;0.98;0.80;;;;;;;;;;4994938;28;20053;-73
2022/10/27 15:20:10;;;;;;;2.15;0.90;;;;;;;;;;5011538;28;20149;-76
2022/10/27 15:22:41;;;;;;;1.90;1.08;;;;;;;;;;5011319;28;20410;-73
2022/10/27 15:25:15;;;;;;;1.33;0.75;;;;;;;;;;5011458;28;20154;-74
2022/10/27 15:27:45;;;;;;;1.30;1.05;;;;;;;;;;5010941;28;20054;-74
2022/10/27 15:30:19;;;;;;;1.27;0.88;;;;;;;;;;4995459;28;20065;-72
2022/10/27 15:32:49;;;;;;;1.00;0.60;;;;;;;;;;4995649;28;20054;-73
2022/10/27 15:35:29;;;;;;;1.08;0.70;;;;;;;;;;5027740;28;20050;-75
2022/10/27 15:38:02;;;;;;;1.40;0.80;;;;;;;;;;5010854;28;20053;-74